Terminal Aerodrome Forecast
Issued by NWS

Home | Current Version | Previous Version | Text Only | Print | Product List | Glossary On
Versions: 1 2 3 4 5 6 7 8 9 10 11 12 13 14 15 16 17 18 19 20 21 22 23 24 25 26 27 28 29
000
FTUS43 KGLD 011301 AAA
TAFMCK
TAF AMD
KMCK 011301Z 0113/0212 31006KT 6SM BR SCT002
      TEMPO 0113/0115 1/2SM FG BKN002
     FM011600 33010KT P6SM FEW070
     FM012200 03008KT P6SM SCT080 BKN250
     FM020600 33010G20KT P6SM VCTS BKN050CB
     FM020730 35015G20KT P6SM -SHRA VCTS OVC035CB=

USA.gov is the U.S. government's official web portal to all federal, state and local government web resources and services.